sensor_id;sensor_type;location;lat;lon;timestamp;pressure;altitude;pressure_sealevel;temperature
66113;BMP280;52893;52.870;5.822;2022-12-29T00:00:19;99678.59;;;11.24
66113;BMP280;52893;52.870;5.822;2022-12-29T00:02:46;99670.06;;;11.25
66113;BMP280;52893;52.870;5.822;2022-12-29T00:05:13;99664.94;;;11.24
66113;BMP280;52893;52.870;5.822;2022-12-29T00:07:42;99663.66;;;11.37
66113;BMP280;52893;52.870;5.822;2022-12-29T00:10:09;99669.19;;;11.40
66113;BMP280;52893;52.870;5.822;2022-12-29T00:12:37;99663.59;;;11.33
66113;BMP280;52893;52.870;5.822;2022-12-29T00:15:24;99665.69;;;11.40
66113;BMP280;52893;52.870;5.822;2022-12-29T00:18:03;99666.41;;;11.37
66113;BMP280;52893;52.870;5.822;2022-12-29T00:20:33;99670.00;;;11.41
66113;BMP280;52893;52.870;5.822;2022-12-29T00:23:19;99659.50;;;11.43
66113;BMP280;52893;52.870;5.822;2022-12-29T00:26:11;99663.94;;;11.51
66113;BMP280;52893;52.870;5.822;2022-12-29T00:28:57;99656.06;;;11.46
66113;BMP280;52893;52.870;5.822;2022-12-29T00:31:42;99653.78;;;11.48
66113;BMP280;52893;52.870;5.822;2022-12-29T00:34:26;99645.84;;;11.43
66113;BMP280;52893;52.870;5.822;2022-12-29T00:37:11;99640.00;;;11.44
66113;BMP280;52893;52.870;5.822;2022-12-29T00:39:40;99644.78;;;11.47
66113;BMP280;52893;52.870;5.822;2022-12-29T00:42:25;99628.66;;;11.42
66113;BMP280;52893;52.870;5.822;2022-12-29T00:45:25;99638.59;;;11.50
66113;BMP280;52893;52.870;5.822;2022-12-29T00:47:53;99642.66;;;11.60
66113;BMP280;52893;52.870;5.822;2022-12-29T00:50:20;99632.84;;;11.55
66113;BMP280;52893;52.870;5.822;2022-12-29T00:52:46;99638.38;;;11.59
66113;BMP280;52893;52.870;5.822;2022-12-29T00:55:15;99628.59;;;11.58
66113;BMP280;52893;52.870;5.822;2022-12-29T00:57:42;99627.44;;;11.59
66113;BMP280;52893;52.870;5.822;2022-12-29T01:00:11;99620.75;;;11.56
66113;BMP280;52893;52.870;5.822;2022-12-29T01:02:38;99619.53;;;11.54
66113;BMP280;52893;52.870;5.822;2022-12-29T01:05:06;99621.91;;;11.55
66113;BMP280;52893;52.870;5.822;2022-12-29T01:07:33;99621.03;;;11.51
66113;BMP280;52893;52.870;5.822;2022-12-29T01:10:01;99611.31;;;11.54
66113;BMP280;52893;52.870;5.822;2022-12-29T01:12:38;99602.78;;;11.55
66113;BMP280;52893;52.870;5.822;2022-12-29T01:15:11;99602.28;;;11.50
66113;BMP280;52893;52.870;5.822;2022-12-29T01:17:39;99598.78;;;11.49
66113;BMP280;52893;52.870;5.822;2022-12-29T01:20:07;99592.78;;;11.44
66113;BMP280;52893;52.870;5.822;2022-12-29T01:22:35;99595.94;;;11.46
66113;BMP280;52893;52.870;5.822;2022-12-29T01:25:02;99584.50;;;11.40
66113;BMP280;52893;52.870;5.822;2022-12-29T01:27:30;99585.03;;;11.46
66113;BMP280;52893;52.870;5.822;2022-12-29T01:29:59;99578.75;;;11.45
66113;BMP280;52893;52.870;5.822;2022-12-29T01:32:26;99570.16;;;11.43
66113;BMP280;52893;52.870;5.822;2022-12-29T01:34:53;99578.09;;;11.52
66113;BMP280;52893;52.870;5.822;2022-12-29T01:37:20;99581.28;;;11.54
66113;BMP280;52893;52.870;5.822;2022-12-29T01:39:48;99562.59;;;11.56
66113;BMP280;52893;52.870;5.822;2022-12-29T01:42:17;99554.41;;;11.59
66113;BMP280;52893;52.870;5.822;2022-12-29T01:44:50;99551.78;;;11.63
66113;BMP280;52893;52.870;5.822;2022-12-29T01:47:26;99560.44;;;11.69
66113;BMP280;52893;52.870;5.822;2022-12-29T01:49:58;99562.41;;;11.68
66113;BMP280;52893;52.870;5.822;2022-12-29T01:52:29;99554.63;;;11.70
66113;BMP280;52893;52.870;5.822;2022-12-29T01:54:57;99550.09;;;11.78
66113;BMP280;52893;52.870;5.822;2022-12-29T01:57:28;99561.44;;;11.80
66113;BMP280;52893;52.870;5.822;2022-12-29T02:00:00;99550.50;;;11.80
66113;BMP280;52893;52.870;5.822;2022-12-29T02:02:42;99552.84;;;11.78
66113;BMP280;52893;52.870;5.822;2022-12-29T02:05:16;99557.91;;;11.79
66113;BMP280;52893;52.870;5.822;2022-12-29T02:07:46;99556.34;;;11.78
66113;BMP280;52893;52.870;5.822;2022-12-29T02:10:15;99556.47;;;11.85
66113;BMP280;52893;52.870;5.822;2022-12-29T02:12:42;99545.91;;;11.84
66113;BMP280;52893;52.870;5.822;2022-12-29T02:15:10;99536.34;;;11.74
66113;BMP280;52893;52.870;5.822;2022-12-29T02:17:46;99546.69;;;11.84
66113;BMP280;52893;52.870;5.822;2022-12-29T02:23:30;99546.19;;;11.79
66113;BMP280;52893;52.870;5.822;2022-12-29T02:26:16;99553.47;;;11.71
66113;BMP280;52893;52.870;5.822;2022-12-29T02:29:33;99557.94;;;11.60
66113;BMP280;52893;52.870;5.822;2022-12-29T02:32:14;99554.53;;;11.44
66113;BMP280;52893;52.870;5.822;2022-12-29T02:34:50;99558.25;;;11.36
66113;BMP280;52893;52.870;5.822;2022-12-29T02:37:24;99562.75;;;11.25
66113;BMP280;52893;52.870;5.822;2022-12-29T02:39:59;99556.69;;;11.15
66113;BMP280;52893;52.870;5.822;2022-12-29T02:42:34;99551.91;;;11.09
66113;BMP280;52893;52.870;5.822;2022-12-29T02:45:05;99564.75;;;11.08
66113;BMP280;52893;52.870;5.822;2022-12-29T02:47:41;99564.63;;;11.01
66113;BMP280;52893;52.870;5.822;2022-12-29T02:50:13;99553.53;;;10.94
66113;BMP280;52893;52.870;5.822;2022-12-29T02:52:46;99558.72;;;10.80
66113;BMP280;52893;52.870;5.822;2022-12-29T02:55:15;99561.50;;;10.84
66113;BMP280;52893;52.870;5.822;2022-12-29T02:57:41;99548.47;;;10.77
66113;BMP280;52893;52.870;5.822;2022-12-29T03:00:11;99555.72;;;10.69
66113;BMP280;52893;52.870;5.822;2022-12-29T03:02:50;99535.75;;;10.65
66113;BMP280;52893;52.870;5.822;2022-12-29T03:05:34;99546.28;;;10.67
66113;BMP280;52893;52.870;5.822;2022-12-29T03:08:06;99543.53;;;10.63
66113;BMP280;52893;52.870;5.822;2022-12-29T03:10:45;99540.41;;;10.65
66113;BMP280;52893;52.870;5.822;2022-12-29T03:13:22;99533.44;;;10.67
66113;BMP280;52893;52.870;5.822;2022-12-29T03:16:14;99526.78;;;10.65
66113;BMP280;52893;52.870;5.822;2022-12-29T03:18:51;99535.75;;;10.65
66113;BMP280;52893;52.870;5.822;2022-12-29T03:21:29;99528.00;;;10.67
66113;BMP280;52893;52.870;5.822;2022-12-29T03:24:15;99527.84;;;10.60
66113;BMP280;52893;52.870;5.822;2022-12-29T03:26:44;99538.09;;;10.67
66113;BMP280;52893;52.870;5.822;2022-12-29T03:29:14;99529.78;;;10.60
66113;BMP280;52893;52.870;5.822;2022-12-29T03:31:47;99544.47;;;10.71
66113;BMP280;52893;52.870;5.822;2022-12-29T03:34:18;99537.88;;;10.72
66113;BMP280;52893;52.870;5.822;2022-12-29T03:36:49;99542.34;;;10.80
66113;BMP280;52893;52.870;5.822;2022-12-29T03:39:19;99547.47;;;10.85
66113;BMP280;52893;52.870;5.822;2022-12-29T03:41:51;99539.28;;;10.85
66113;BMP280;52893;52.870;5.822;2022-12-29T03:44:31;99525.97;;;10.80
66113;BMP280;52893;52.870;5.822;2022-12-29T03:47:00;99542.41;;;10.84
66113;BMP280;52893;52.870;5.822;2022-12-29T03:49:28;99547.94;;;10.87
66113;BMP280;52893;52.870;5.822;2022-12-29T03:51:56;99540.00;;;10.82
66113;BMP280;52893;52.870;5.822;2022-12-29T03:54:24;99540.09;;;10.86
66113;BMP280;52893;52.870;5.822;2022-12-29T03:56:52;99547.78;;;10.80
66113;BMP280;52893;52.870;5.822;2022-12-29T03:59:30;99538.56;;;10.69
66113;BMP280;52893;52.870;5.822;2022-12-29T04:01:57;99550.91;;;10.63
66113;BMP280;52893;52.870;5.822;2022-12-29T04:04:25;99553.19;;;10.61
66113;BMP280;52893;52.870;5.822;2022-12-29T04:06:53;99533.09;;;10.34
66113;BMP280;52893;52.870;5.822;2022-12-29T04:09:21;99553.59;;;10.44
66113;BMP280;52893;52.870;5.822;2022-12-29T04:11:50;99568.88;;;10.48
66113;BMP280;52893;52.870;5.822;2022-12-29T04:14:18;99555.97;;;10.45
66113;BMP280;52893;52.870;5.822;2022-12-29T04:16:45;99557.97;;;10.33
66113;BMP280;52893;52.870;5.822;2022-12-29T04:19:13;99565.47;;;10.36
66113;BMP280;52893;52.870;5.822;2022-12-29T04:21:41;99575.25;;;10.37
66113;BMP280;52893;52.870;5.822;2022-12-29T04:24:10;99575.13;;;10.33
66113;BMP280;52893;52.870;5.822;2022-12-29T04:26:40;99581.13;;;10.39
66113;BMP280;52893;52.870;5.822;2022-12-29T04:29:28;99584.38;;;10.29
66113;BMP280;52893;52.870;5.822;2022-12-29T04:32:14;99582.78;;;10.27
66113;BMP280;52893;52.870;5.822;2022-12-29T04:34:47;99580.84;;;10.28
66113;BMP280;52893;52.870;5.822;2022-12-29T04:37:15;99578.41;;;10.23
66113;BMP280;52893;52.870;5.822;2022-12-29T04:39:43;99575.16;;;10.17
66113;BMP280;52893;52.870;5.822;2022-12-29T04:42:11;99561.78;;;10.12
66113;BMP280;52893;52.870;5.822;2022-12-29T04:44:39;99565.66;;;10.11
66113;BMP280;52893;52.870;5.822;2022-12-29T04:47:12;99552.66;;;10.05
66113;BMP280;52893;52.870;5.822;2022-12-29T04:49:49;99569.34;;;10.03
66113;BMP280;52893;52.870;5.822;2022-12-29T04:52:36;99566.34;;;10.08
66113;BMP280;52893;52.870;5.822;2022-12-29T04:55:06;99570.13;;;10.04
66113;BMP280;52893;52.870;5.822;2022-12-29T04:57:33;99573.66;;;10.04
66113;BMP280;52893;52.870;5.822;2022-12-29T05:00:01;99576.38;;;10.04
66113;BMP280;52893;52.870;5.822;2022-12-29T05:02:28;99565.47;;;10.04
66113;BMP280;52893;52.870;5.822;2022-12-29T05:04:56;99568.81;;;10.13
66113;BMP280;52893;52.870;5.822;2022-12-29T05:07:25;99567.13;;;10.09
66113;BMP280;52893;52.870;5.822;2022-12-29T05:09:53;99581.53;;;10.09
66113;BMP280;52893;52.870;5.822;2022-12-29T05:12:23;99586.66;;;10.11
66113;BMP280;52893;52.870;5.822;2022-12-29T05:14:58;99587.38;;;10.08
66113;BMP280;52893;52.870;5.822;2022-12-29T05:17:26;99591.31;;;10.10
66113;BMP280;52893;52.870;5.822;2022-12-29T05:19:53;99578.81;;;10.09
66113;BMP280;52893;52.870;5.822;2022-12-29T05:22:21;99571.28;;;10.03
66113;BMP280;52893;52.870;5.822;2022-12-29T05:24:49;99593.41;;;10.01
66113;BMP280;52893;52.870;5.822;2022-12-29T05:27:17;99597.09;;;9.93
66113;BMP280;52893;52.870;5.822;2022-12-29T05:30:11;99595.50;;;9.92
66113;BMP280;52893;52.870;5.822;2022-12-29T05:32:40;99610.50;;;9.98
66113;BMP280;52893;52.870;5.822;2022-12-29T05:35:08;99591.94;;;10.04
66113;BMP280;52893;52.870;5.822;2022-12-29T05:37:35;99607.31;;;9.96
66113;BMP280;52893;52.870;5.822;2022-12-29T05:40:03;99609.44;;;10.03
66113;BMP280;52893;52.870;5.822;2022-12-29T05:42:31;99607.25;;;10.08
66113;BMP280;52893;52.870;5.822;2022-12-29T05:45:33;99595.91;;;10.06
66113;BMP280;52893;52.870;5.822;2022-12-29T05:48:23;99601.88;;;10.12
66113;BMP280;52893;52.870;5.822;2022-12-29T05:51:14;99603.13;;;10.14
66113;BMP280;52893;52.870;5.822;2022-12-29T05:53:47;99614.09;;;10.18
66113;BMP280;52893;52.870;5.822;2022-12-29T05:56:16;99607.88;;;10.17
66113;BMP280;52893;52.870;5.822;2022-12-29T05:58:45;99626.59;;;10.19
66113;BMP280;52893;52.870;5.822;2022-12-29T06:01:13;99609.38;;;10.15
66113;BMP280;52893;52.870;5.822;2022-12-29T06:03:41;99636.03;;;10.21
66113;BMP280;52893;52.870;5.822;2022-12-29T06:06:09;99631.44;;;10.25
66113;BMP280;52893;52.870;5.822;2022-12-29T06:08:38;99633.13;;;10.30
66113;BMP280;52893;52.870;5.822;2022-12-29T06:11:05;99630.72;;;10.29
66113;BMP280;52893;52.870;5.822;2022-12-29T06:13:33;99618.94;;;10.24
66113;BMP280;52893;52.870;5.822;2022-12-29T06:16:00;99632.41;;;10.33
66113;BMP280;52893;52.870;5.822;2022-12-29T06:18:29;99630.47;;;10.34
66113;BMP280;52893;52.870;5.822;2022-12-29T06:20:59;99614.38;;;10.29
66113;BMP280;52893;52.870;5.822;2022-12-29T06:23:27;99622.03;;;10.23
66113;BMP280;52893;52.870;5.822;2022-12-29T06:25:54;99639.72;;;10.13
66113;BMP280;52893;52.870;5.822;2022-12-29T06:28:21;99627.09;;;10.09
66113;BMP280;52893;52.870;5.822;2022-12-29T06:30:49;99631.78;;;10.08
66113;BMP280;52893;52.870;5.822;2022-12-29T06:33:17;99636.88;;;10.10
66113;BMP280;52893;52.870;5.822;2022-12-29T06:35:46;99628.97;;;10.05
66113;BMP280;52893;52.870;5.822;2022-12-29T06:38:15;99638.78;;;10.09
66113;BMP280;52893;52.870;5.822;2022-12-29T06:40:43;99638.63;;;10.02
66113;BMP280;52893;52.870;5.822;2022-12-29T06:43:31;99628.63;;;10.06
66113;BMP280;52893;52.870;5.822;2022-12-29T06:46:29;99636.00;;;10.06
66113;BMP280;52893;52.870;5.822;2022-12-29T06:48:56;99641.19;;;10.11
66113;BMP280;52893;52.870;5.822;2022-12-29T06:51:24;99641.31;;;10.14
66113;BMP280;52893;52.870;5.822;2022-12-29T06:53:51;99639.59;;;10.10
66113;BMP280;52893;52.870;5.822;2022-12-29T06:56:19;99649.47;;;10.14
66113;BMP280;52893;52.870;5.822;2022-12-29T06:58:46;99636.03;;;10.21
66113;BMP280;52893;52.870;5.822;2022-12-29T07:01:13;99631.34;;;10.22
66113;BMP280;52893;52.870;5.822;2022-12-29T07:03:41;99642.78;;;10.27
66113;BMP280;52893;52.870;5.822;2022-12-29T07:06:09;99638.41;;;10.23
66113;BMP280;52893;52.870;5.822;2022-12-29T07:08:37;99632.25;;;10.26
66113;BMP280;52893;52.870;5.822;2022-12-29T07:11:05;99637.78;;;10.30
66113;BMP280;52893;52.870;5.822;2022-12-29T07:13:32;99645.44;;;10.24
66113;BMP280;52893;52.870;5.822;2022-12-29T07:16:05;99650.28;;;10.31
66113;BMP280;52893;52.870;5.822;2022-12-29T07:18:32;99641.75;;;10.32
66113;BMP280;52893;52.870;5.822;2022-12-29T07:21:00;99650.44;;;10.38
66113;BMP280;52893;52.870;5.822;2022-12-29T07:23:27;99647.72;;;10.38
66113;BMP280;52893;52.870;5.822;2022-12-29T07:26:00;99644.09;;;10.34
66113;BMP280;52893;52.870;5.822;2022-12-29T07:28:28;99646.66;;;10.27
66113;BMP280;52893;52.870;5.822;2022-12-29T07:30:55;99651.75;;;10.28
66113;BMP280;52893;52.870;5.822;2022-12-29T07:33:22;99646.75;;;10.30
66113;BMP280;52893;52.870;5.822;2022-12-29T07:35:50;99655.56;;;10.23
66113;BMP280;52893;52.870;5.822;2022-12-29T07:38:18;99648.59;;;10.26
66113;BMP280;52893;52.870;5.822;2022-12-29T07:40:45;99652.47;;;10.25
66113;BMP280;52893;52.870;5.822;2022-12-29T07:43:14;99653.25;;;10.25
66113;BMP280;52893;52.870;5.822;2022-12-29T07:45:52;99651.41;;;10.30
66113;BMP280;52893;52.870;5.822;2022-12-29T07:48:22;99655.72;;;10.31
66113;BMP280;52893;52.870;5.822;2022-12-29T07:50:50;99656.41;;;10.27
66113;BMP280;52893;52.870;5.822;2022-12-29T07:53:17;99657.84;;;10.21
66113;BMP280;52893;52.870;5.822;2022-12-29T07:55:45;99648.41;;;10.19
66113;BMP280;52893;52.870;5.822;2022-12-29T07:58:13;99652.63;;;10.16
66113;BMP280;52893;52.870;5.822;2022-12-29T08:00:40;99652.09;;;10.11
66113;BMP280;52893;52.870;5.822;2022-12-29T08:03:08;99663.16;;;10.18
66113;BMP280;52893;52.870;5.822;2022-12-29T08:05:35;99656.06;;;10.13
66113;BMP280;52893;52.870;5.822;2022-12-29T08:08:02;99669.09;;;10.20
66113;BMP280;52893;52.870;5.822;2022-12-29T08:10:29;99679.66;;;10.21
66113;BMP280;52893;52.870;5.822;2022-12-29T08:12:57;99676.47;;;10.19
66113;BMP280;52893;52.870;5.822;2022-12-29T08:15:26;99659.44;;;10.22
66113;BMP280;52893;52.870;5.822;2022-12-29T08:17:53;99671.56;;;10.25
66113;BMP280;52893;52.870;5.822;2022-12-29T08:20:20;99660.41;;;10.30
66113;BMP280;52893;52.870;5.822;2022-12-29T08:22:47;99668.22;;;10.32
66113;BMP280;52893;52.870;5.822;2022-12-29T08:25:15;99667.97;;;10.37
66113;BMP280;52893;52.870;5.822;2022-12-29T08:27:42;99676.16;;;10.37
66113;BMP280;52893;52.870;5.822;2022-12-29T08:30:10;99670.78;;;10.40
66113;BMP280;52893;52.870;5.822;2022-12-29T08:32:39;99675.00;;;10.38
66113;BMP280;52893;52.870;5.822;2022-12-29T08:35:07;99684.06;;;10.42
66113;BMP280;52893;52.870;5.822;2022-12-29T08:37:34;99666.03;;;10.37
66113;BMP280;52893;52.870;5.822;2022-12-29T08:40:02;99673.25;;;10.45
66113;BMP280;52893;52.870;5.822;2022-12-29T08:42:29;99646.22;;;10.24
66113;BMP280;52893;52.870;5.822;2022-12-29T08:44:57;99665.31;;;10.24
66113;BMP280;52893;52.870;5.822;2022-12-29T08:47:25;99652.81;;;10.08
66113;BMP280;52893;52.870;5.822;2022-12-29T08:49:54;99673.22;;;9.98
66113;BMP280;52893;52.870;5.822;2022-12-29T08:52:22;99680.94;;;9.84
66113;BMP280;52893;52.870;5.822;2022-12-29T08:54:49;99678.50;;;9.79
66113;BMP280;52893;52.870;5.822;2022-12-29T08:57:17;99683.31;;;9.70
66113;BMP280;52893;52.870;5.822;2022-12-29T09:00:11;99684.66;;;9.64
66113;BMP280;52893;52.870;5.822;2022-12-29T09:02:38;99671.75;;;9.61
66113;BMP280;52893;52.870;5.822;2022-12-29T09:05:08;99685.66;;;9.71
66113;BMP280;52893;52.870;5.822;2022-12-29T09:07:35;99672.03;;;9.71
66113;BMP280;52893;52.870;5.822;2022-12-29T09:10:03;99668.28;;;9.76
66113;BMP280;52893;52.870;5.822;2022-12-29T09:12:31;99685.94;;;9.82
66113;BMP280;52893;52.870;5.822;2022-12-29T09:14:58;99689.84;;;9.81
66113;BMP280;52893;52.870;5.822;2022-12-29T09:17:25;99689.03;;;9.80
66113;BMP280;52893;52.870;5.822;2022-12-29T09:20:10;99688.94;;;9.77
66113;BMP280;52893;52.870;5.822;2022-12-29T09:22:38;99708.53;;;9.82
66113;BMP280;52893;52.870;5.822;2022-12-29T09:25:06;99703.03;;;9.79
66113;BMP280;52893;52.870;5.822;2022-12-29T09:27:35;99690.22;;;9.67
66113;BMP280;52893;52.870;5.822;2022-12-29T09:30:03;99706.22;;;9.69
66113;BMP280;52893;52.870;5.822;2022-12-29T09:32:31;99704.88;;;9.63
66113;BMP280;52893;52.870;5.822;2022-12-29T09:34:58;99721.94;;;9.60
66113;BMP280;52893;52.870;5.822;2022-12-29T09:37:27;99715.22;;;9.57
66113;BMP280;52893;52.870;5.822;2022-12-29T09:39:55;99701.84;;;9.52
66113;BMP280;52893;52.870;5.822;2022-12-29T09:42:26;99715.34;;;9.49
66113;BMP280;52893;52.870;5.822;2022-12-29T09:45:01;99708.63;;;9.46
66113;BMP280;52893;52.870;5.822;2022-12-29T09:47:30;99722.38;;;9.38
66113;BMP280;52893;52.870;5.822;2022-12-29T09:50:02;99728.31;;;9.40
66113;BMP280;52893;52.870;5.822;2022-12-29T09:52:35;99729.22;;;9.31
66113;BMP280;52893;52.870;5.822;2022-12-29T09:55:05;99736.59;;;9.31
66113;BMP280;52893;52.870;5.822;2022-12-29T09:57:37;99745.31;;;9.24
66113;BMP280;52893;52.870;5.822;2022-12-29T10:00:12;99755.31;;;9.20
66113;BMP280;52893;52.870;5.822;2022-12-29T10:02:43;99763.72;;;9.15
66113;BMP280;52893;52.870;5.822;2022-12-29T10:05:22;99751.69;;;9.04
66113;BMP280;52893;52.870;5.822;2022-12-29T10:08:00;99771.66;;;9.08
66113;BMP280;52893;52.870;5.822;2022-12-29T10:10:35;99772.09;;;9.10
66113;BMP280;52893;52.870;5.822;2022-12-29T10:13:13;99782.97;;;9.10
66113;BMP280;52893;52.870;5.822;2022-12-29T10:15:54;99797.72;;;9.09
66113;BMP280;52893;52.870;5.822;2022-12-29T10:18:37;99805.34;;;9.04
66113;BMP280;52893;52.870;5.822;2022-12-29T10:21:17;99796.03;;;9.05
66113;BMP280;52893;52.870;5.822;2022-12-29T10:23:51;99799.09;;;9.03
66113;BMP280;52893;52.870;5.822;2022-12-29T10:26:20;99807.84;;;9.09
66113;BMP280;52893;52.870;5.822;2022-12-29T10:28:51;99805.88;;;9.09
66113;BMP280;52893;52.870;5.822;2022-12-29T10:31:22;99820.66;;;9.08
66113;BMP280;52893;52.870;5.822;2022-12-29T10:33:54;99819.06;;;9.07
66113;BMP280;52893;52.870;5.822;2022-12-29T10:36:24;99818.59;;;9.05
66113;BMP280;52893;52.870;5.822;2022-12-29T10:39:02;99823.13;;;9.01
66113;BMP280;52893;52.870;5.822;2022-12-29T10:41:36;99826.97;;;9.00
66113;BMP280;52893;52.870;5.822;2022-12-29T10:44:09;99834.81;;;9.02
66113;BMP280;52893;52.870;5.822;2022-12-29T10:46:38;99835.38;;;8.95
66113;BMP280;52893;52.870;5.822;2022-12-29T10:49:12;99854.75;;;8.94
66113;BMP280;52893;52.870;5.822;2022-12-29T10:51:42;99844.66;;;8.94
66113;BMP280;52893;52.870;5.822;2022-12-29T10:54:15;99853.25;;;8.96
66113;BMP280;52893;52.870;5.822;2022-12-29T10:56:48;99863.63;;;9.03
66113;BMP280;52893;52.870;5.822;2022-12-29T10:59:21;99850.59;;;9.08
66113;BMP280;52893;52.870;5.822;2022-12-29T11:01:56;99857.53;;;9.18
66113;BMP280;52893;52.870;5.822;2022-12-29T11:04:42;99866.03;;;9.28
66113;BMP280;52893;52.870;5.822;2022-12-29T11:07:15;99875.59;;;9.59
66113;BMP280;52893;52.870;5.822;2022-12-29T11:09:45;99883.19;;;9.65
66113;BMP280;52893;52.870;5.822;2022-12-29T11:12:25;99896.38;;;9.88
66113;BMP280;52893;52.870;5.822;2022-12-29T11:15:11;99895.94;;;9.98
66113;BMP280;52893;52.870;5.822;2022-12-29T11:17:46;99893.25;;;10.25
66113;BMP280;52893;52.870;5.822;2022-12-29T11:20:35;99896.72;;;10.38
66113;BMP280;52893;52.870;5.822;2022-12-29T11:23:05;99889.09;;;10.44
66113;BMP280;52893;52.870;5.822;2022-12-29T11:25:34;99903.28;;;10.49
66113;BMP280;52893;52.870;5.822;2022-12-29T11:28:03;99922.75;;;10.48
66113;BMP280;52893;52.870;5.822;2022-12-29T11:30:40;99918.50;;;10.50
66113;BMP280;52893;52.870;5.822;2022-12-29T11:33:08;99927.41;;;10.47
66113;BMP280;52893;52.870;5.822;2022-12-29T11:35:39;99935.25;;;10.49
66113;BMP280;52893;52.870;5.822;2022-12-29T11:38:18;99937.41;;;10.43
66113;BMP280;52893;52.870;5.822;2022-12-29T11:40:48;99942.53;;;10.33
66113;BMP280;52893;52.870;5.822;2022-12-29T11:43:22;99952.22;;;10.30
66113;BMP280;52893;52.870;5.822;2022-12-29T11:45:52;99939.97;;;10.24
66113;BMP280;52893;52.870;5.822;2022-12-29T11:48:20;99961.44;;;10.13
66113;BMP280;52893;52.870;5.822;2022-12-29T11:50:50;99960.44;;;10.06
66113;BMP280;52893;52.870;5.822;2022-12-29T11:53:21;99973.59;;;10.04
66113;BMP280;52893;52.870;5.822;2022-12-29T11:56:01;99969.72;;;10.17
66113;BMP280;52893;52.870;5.822;2022-12-29T11:58:30;99968.94;;;10.16
66113;BMP280;52893;52.870;5.822;2022-12-29T12:01:01;99976.56;;;10.23
66113;BMP280;52893;52.870;5.822;2022-12-29T12:03:32;99980.28;;;10.31
66113;BMP280;52893;52.870;5.822;2022-12-29T12:06:02;99979.72;;;10.25
66113;BMP280;52893;52.870;5.822;2022-12-29T12:08:34;99992.34;;;10.30
66113;BMP280;52893;52.870;5.822;2022-12-29T12:11:09;99995.66;;;10.23
66113;BMP280;52893;52.870;5.822;2022-12-29T12:13:43;99995.97;;;10.21
66113;BMP280;52893;52.870;5.822;2022-12-29T12:16:18;100000.75;;;10.24
66113;BMP280;52893;52.870;5.822;2022-12-29T12:18:52;100005.28;;;10.20
66113;BMP280;52893;52.870;5.822;2022-12-29T12:21:24;100007.34;;;10.23
66113;BMP280;52893;52.870;5.822;2022-12-29T12:24:15;99998.69;;;10.21
66113;BMP280;52893;52.870;5.822;2022-12-29T12:26:55;100015.06;;;10.34
66113;BMP280;52893;52.870;5.822;2022-12-29T12:29:33;100014.38;;;10.37
66113;BMP280;52893;52.870;5.822;2022-12-29T12:32:11;100023.91;;;10.43
66113;BMP280;52893;52.870;5.822;2022-12-29T12:34:42;100023.00;;;10.51
66113;BMP280;52893;52.870;5.822;2022-12-29T12:37:48;100031.97;;;10.51
66113;BMP280;52893;52.870;5.822;2022-12-29T12:40:34;100027.78;;;10.54
66113;BMP280;52893;52.870;5.822;2022-12-29T12:43:18;100029.13;;;10.48
66113;BMP280;52893;52.870;5.822;2022-12-29T12:45:55;100033.91;;;10.51
66113;BMP280;52893;52.870;5.822;2022-12-29T12:48:45;100043.59;;;10.48
66113;BMP280;52893;52.870;5.822;2022-12-29T12:51:20;100042.09;;;10.51
66113;BMP280;52893;52.870;5.822;2022-12-29T12:54:01;100051.88;;;10.52
66113;BMP280;52893;52.870;5.822;2022-12-29T12:56:49;100053.47;;;10.53
66113;BMP280;52893;52.870;5.822;2022-12-29T12:59:37;100049.94;;;10.52
66113;BMP280;52893;52.870;5.822;2022-12-29T13:02:18;100048.13;;;10.44
66113;BMP280;52893;52.870;5.822;2022-12-29T13:05:19;100053.25;;;10.46
66113;BMP280;52893;52.870;5.822;2022-12-29T13:07:55;100054.38;;;10.45
66113;BMP280;52893;52.870;5.822;2022-12-29T13:10:33;100062.56;;;10.33
66113;BMP280;52893;52.870;5.822;2022-12-29T13:13:24;100060.84;;;10.28
66113;BMP280;52893;52.870;5.822;2022-12-29T13:16:01;100073.69;;;10.27
66113;BMP280;52893;52.870;5.822;2022-12-29T13:18:37;100067.00;;;10.25
66113;BMP280;52893;52.870;5.822;2022-12-29T13:21:24;100069.28;;;10.23
66113;BMP280;52893;52.870;5.822;2022-12-29T13:23:58;100076.88;;;10.17
66113;BMP280;52893;52.870;5.822;2022-12-29T13:26:32;100083.34;;;10.13
66113;BMP280;52893;52.870;5.822;2022-12-29T13:29:08;100082.09;;;10.10
66113;BMP280;52893;52.870;5.822;2022-12-29T13:31:47;100092.09;;;10.06
66113;BMP280;52893;52.870;5.822;2022-12-29T13:34:24;100090.03;;;10.03
66113;BMP280;52893;52.870;5.822;2022-12-29T13:36:56;100091.81;;;9.99
66113;BMP280;52893;52.870;5.822;2022-12-29T13:39:30;100093.22;;;10.05
66113;BMP280;52893;52.870;5.822;2022-12-29T13:41:59;100093.56;;;10.04
66113;BMP280;52893;52.870;5.822;2022-12-29T13:44:31;100106.06;;;10.05
66113;BMP280;52893;52.870;5.822;2022-12-29T13:47:06;100075.47;;;9.87
66113;BMP280;52893;52.870;5.822;2022-12-29T13:49:38;100097.03;;;9.92
66113;BMP280;52893;52.870;5.822;2022-12-29T13:52:13;100092.38;;;9.93
66113;BMP280;52893;52.870;5.822;2022-12-29T13:54:45;100090.00;;;9.91
66113;BMP280;52893;52.870;5.822;2022-12-29T13:57:32;100096.97;;;9.89
66113;BMP280;52893;52.870;5.822;2022-12-29T14:00:03;100102.75;;;9.87
66113;BMP280;52893;52.870;5.822;2022-12-29T14:02:46;100098.75;;;9.85
66113;BMP280;52893;52.870;5.822;2022-12-29T14:05:28;100110.19;;;9.90
66113;BMP280;52893;52.870;5.822;2022-12-29T14:08:00;100106.16;;;9.96
66113;BMP280;52893;52.870;5.822;2022-12-29T14:10:32;100107.94;;;9.92
66113;BMP280;52893;52.870;5.822;2022-12-29T14:13:05;100106.50;;;9.95
66113;BMP280;52893;52.870;5.822;2022-12-29T14:15:37;100102.50;;;9.92
66113;BMP280;52893;52.870;5.822;2022-12-29T14:18:14;100109.53;;;9.93
66113;BMP280;52893;52.870;5.822;2022-12-29T14:20:53;100102.50;;;9.92
66113;BMP280;52893;52.870;5.822;2022-12-29T14:23:35;100118.38;;;9.90
66113;BMP280;52893;52.870;5.822;2022-12-29T14:26:14;100118.38;;;9.90
66113;BMP280;52893;52.870;5.822;2022-12-29T14:28:43;100111.81;;;9.91
66113;BMP280;52893;52.870;5.822;2022-12-29T14:31:34;100127.28;;;9.87
66113;BMP280;52893;52.870;5.822;2022-12-29T14:34:38;100125.06;;;9.80
66113;BMP280;52893;52.870;5.822;2022-12-29T14:37:23;100114.97;;;9.81
66113;BMP280;52893;52.870;5.822;2022-12-29T14:40:02;100118.84;;;9.80
66113;BMP280;52893;52.870;5.822;2022-12-29T14:42:31;100119.59;;;9.68
66113;BMP280;52893;52.870;5.822;2022-12-29T14:45:01;100123.56;;;9.71